Time;durP1;ratioP1;P1;durP2;ratioP2;P2;SDS_P1;SDS_P2;PMS_P1;PMS_P2;Temp;Humidity;BMP_temperature;BMP_pressure;BME280_temperature;BME280_humidity;BME280_pressure;Samples;Min_cycle;Max_cycle;Signal;HPM_P1;HPM_P2
2021/07/09 00:01:49;;;;;;;6.40;4.40;;;20.10;98.60;;;;;;5073444;28;20025;-75
2021/07/09 00:04:35;;;;;;;6.60;4.72;;;20.20;98.60;;;;;;5070589;28;20129;-76
2021/07/09 00:07:20;;;;;;;7.10;4.22;;;20.20;98.60;;;;;;5072563;28;20063;-74
2021/07/09 00:10:07;;;;;;;7.78;5.05;;;20.20;98.60;;;;;;5055166;28;20098;-74
2021/07/09 00:12:52;;;;;;;4.88;4.07;;;20.30;98.60;;;;;;5053692;28;20647;-75
2021/07/09 00:15:38;;;;;;;6.47;4.57;;;20.30;98.50;;;;;;5062680;28;20028;-75
2021/07/09 00:18:24;;;;;;;5.00;4.00;;;20.20;98.60;;;;;;5073594;28;20113;-76
2021/07/09 00:21:11;;;;;;;5.82;4.38;;;20.20;98.50;;;;;;5055862;28;20029;-75
2021/07/09 00:23:58;;;;;;;7.35;4.68;;;20.20;98.50;;;;;;5051603;28;20102;-76
2021/07/09 00:26:44;;;;;;;4.78;4.18;;;20.20;98.60;;;;;;5073756;28;20020;-75
2021/07/09 00:29:30;;;;;;;8.02;4.53;;;20.20;98.60;;;;;;5069389;28;20040;-73
2021/07/09 00:32:16;;;;;;;4.95;3.80;;;20.20;98.60;;;;;;5051888;28;20021;-74
2021/07/09 00:35:02;;;;;;;6.18;4.65;;;20.20;98.60;;;;;;5057799;28;20036;-75
2021/07/09 00:37:48;;;;;;;5.75;4.50;;;20.20;98.60;;;;;;5068671;28;20379;-74
2021/07/09 00:40:34;;;;;;;4.85;4.10;;;20.20;98.60;;;;;;5062491;28;20040;-74
2021/07/09 00:43:20;;;;;;;4.63;4.05;;;20.20;98.50;;;;;;5053730;28;20031;-74
2021/07/09 00:46:06;;;;;;;8.40;4.38;;;20.20;98.50;;;;;;5064735;28;20029;-75
2021/07/09 00:48:52;;;;;;;5.80;3.85;;;20.20;98.50;;;;;;5072011;28;20181;-75
2021/07/09 00:51:29;;;;;;;8.38;4.55;;;20.20;98.60;;;;;;5068881;28;20427;-75
2021/07/09 00:54:13;;;;;;;6.25;4.07;;;20.10;98.50;;;;;;5073226;28;20542;-75
2021/07/09 00:56:57;;;;;;;5.63;3.83;;;20.10;98.60;;;;;;5053271;28;20400;-75
2021/07/09 00:59:42;;;;;;;5.30;3.65;;;20.10;98.70;;;;;;5053321;28;20297;-76
2021/07/09 01:02:26;;;;;;;;;;;20.10;98.70;;;;;;5053155;28;20086;-76
2021/07/09 01:05:12;;;;;;;6.75;3.72;;;20.00;98.50;;;;;;5061249;28;19963;-75
2021/07/09 01:07:56;;;;;;;4.55;3.60;;;20.00;98.60;;;;;;5072909;28;20249;-75
2021/07/09 01:10:43;;;;;;;6.37;4.07;;;20.10;98.70;;;;;;5060629;28;20048;-75
2021/07/09 01:13:28;;;;;;;5.60;4.30;;;20.10;98.60;;;;;;5052644;28;20035;-74
2021/07/09 01:16:13;;;;;;;5.90;3.80;;;20.10;98.60;;;;;;5067770;28;20075;-75
2021/07/09 01:18:57;;;;;;;5.75;4.32;;;20.10;98.60;;;;;;5072612;28;20397;-74
2021/07/09 01:21:42;;;;;;;6.00;3.97;;;20.10;98.70;;;;;;5053408;28;20131;-72
2021/07/09 01:24:26;;;;;;;7.15;4.97;;;20.10;98.70;;;;;;5052569;28;20083;-75
2021/07/09 01:26:52;;;;;;;6.15;4.13;;;20.10;98.70;;;;;;5056036;28;20025;-75
2021/07/09 01:29:36;;;;;;;4.78;3.80;;;20.10;98.60;;;;;;5066098;28;20051;-74
2021/07/09 01:32:20;;;;;;;6.32;3.75;;;20.10;98.60;;;;;;5052495;28;20106;-75
2021/07/09 01:35:05;;;;;;;5.63;4.07;;;20.10;98.60;;;;;;5060897;28;20044;-74
2021/07/09 01:38:09;;;;;;;5.53;4.03;;;20.10;98.60;;;;;;5072227;28;20055;-74
2021/07/09 01:40:53;;;;;;;5.05;4.32;;;20.00;98.70;;;;;;5071278;28;20031;-74
2021/07/09 01:43:36;;;;;;;8.13;4.53;;;20.10;98.70;;;;;;5071109;28;20067;-75
2021/07/09 01:46:20;;;;;;;7.50;4.30;;;20.10;98.70;;;;;;5051953;28;20071;-74
2021/07/09 01:49:05;;;;;;;6.90;4.30;;;20.10;98.80;;;;;;5054408;28;20140;-74
2021/07/09 01:51:49;;;;;;;5.37;3.97;;;20.10;98.80;;;;;;5052058;28;20145;-74
2021/07/09 01:54:36;;;;;;;7.22;4.53;;;20.00;98.80;;;;;;5040545;28;20027;-74
2021/07/09 01:57:20;;;;;;;5.05;3.75;;;20.00;98.80;;;;;;5072011;28;20036;-74
2021/07/09 02:00:10;;;;;;;6.00;3.97;;;20.10;98.80;;;;;;5062761;28;20627;-74
2021/07/09 02:02:55;;;;;;;5.88;4.38;;;20.10;98.70;;;;;;5067715;28;20035;-74
2021/07/09 02:05:39;;;;;;;8.73;4.30;;;20.10;98.70;;;;;;5057822;28;20050;-74
2021/07/09 02:08:23;;;;;;;7.70;4.07;;;20.10;98.70;;;;;;5054508;28;20040;-74
2021/07/09 02:11:07;;;;;;;4.83;3.80;;;20.10;98.60;;;;;;5053064;28;20048;-74
2021/07/09 02:13:51;;;;;;;5.18;3.83;;;20.10;98.70;;;;;;5051661;28;20039;-74
2021/07/09 02:16:35;;;;;;;10.07;3.87;;;20.00;98.70;;;;;;5051293;28;20067;-74
2021/07/09 02:19:19;;;;;;;6.97;3.92;;;20.10;98.70;;;;;;5053699;28;20039;-75
2021/07/09 02:22:05;;;;;;;5.60;3.80;;;20.10;98.70;;;;;;5071049;28;20124;-75
2021/07/09 02:24:50;;;;;;;5.20;3.92;;;20.00;98.80;;;;;;5064257;28;20099;-75
2021/07/09 02:27:39;;;;;;;5.65;3.83;;;20.10;98.80;;;;;;5051213;28;20078;-75
2021/07/09 02:30:28;;;;;;;5.47;3.88;;;20.00;98.80;;;;;;5061776;28;20400;-75
2021/07/09 02:33:12;;;;;;;8.40;3.97;;;20.10;98.80;;;;;;5071777;28;20027;-75
2021/07/09 02:35:56;;;;;;;4.40;3.77;;;20.10;98.70;;;;;;5055442;28;20090;-75
2021/07/09 02:38:40;;;;;;;6.87;4.63;;;20.10;98.70;;;;;;5066857;28;20559;-77
2021/07/09 02:41:24;;;;;;;5.68;3.85;;;20.20;98.70;;;;;;5070631;28;20366;-78
2021/07/09 02:44:08;;;;;;;6.88;4.30;;;20.10;98.60;;;;;;5070925;28;20112;-78
2021/07/09 02:46:53;;;;;;;4.80;4.20;;;20.20;98.80;;;;;;5036751;28;20040;-77
2021/07/09 02:49:37;;;;;;;;;;;20.20;98.70;;;;;;5051782;28;20342;-78
2021/07/09 02:52:21;;;;;;;7.55;4.00;;;20.10;98.50;;;;;;5053407;28;20374;-77
2021/07/09 02:55:07;;;;;;;5.57;3.92;;;20.10;98.60;;;;;;5069678;28;20059;-78
2021/07/09 02:57:51;;;;;;;6.03;4.40;;;20.10;98.70;;;;;;5071424;28;20043;-78
2021/07/09 03:00:35;;;;;;;7.87;4.43;;;20.10;98.80;;;;;;5070111;28;20039;-78
2021/07/09 03:03:20;;;;;;;8.40;4.80;;;20.10;98.80;;;;;;5071426;28;20270;-78
2021/07/09 03:06:04;;;;;;;6.23;4.20;;;20.10;98.80;;;;;;5039239;28;20548;-78
2021/07/09 03:08:49;;;;;;;6.70;4.57;;;20.10;98.80;;;;;;5069681;28;20133;-77
2021/07/09 03:11:34;;;;;;;8.43;5.07;;;20.10;98.90;;;;;;5051063;28;20047;-76
2021/07/09 03:14:18;;;;;;;6.95;3.88;;;20.10;98.80;;;;;;5052200;28;20047;-76
2021/07/09 03:17:03;;;;;;;5.15;4.13;;;20.20;98.90;;;;;;5050864;28;20484;-76
2021/07/09 03:19:47;;;;;;;6.68;4.30;;;20.20;98.80;;;;;;5056372;28;20040;-76
2021/07/09 03:22:31;;;;;;;9.23;4.43;;;20.20;98.80;;;;;;5070936;28;20415;-77
2021/07/09 03:25:15;;;;;;;8.03;4.60;;;20.10;98.80;;;;;;5021991;28;20053;-77
2021/07/09 03:27:41;;;;;;;11.38;4.70;;;20.20;98.80;;;;;;5030957;28;20280;-76
2021/07/09 03:30:24;;;;;;;5.88;3.95;;;20.20;98.80;;;;;;5029469;28;20076;-76
2021/07/09 03:33:11;;;;;;;5.63;4.20;;;20.20;98.80;;;;;;5030922;28;20028;-74
2021/07/09 03:35:57;;;;;;;7.35;4.97;;;20.20;98.80;;;;;;5030264;28;20029;-74
2021/07/09 03:38:42;;;;;;;5.68;4.18;;;20.20;98.80;;;;;;5034330;28;20025;-74
2021/07/09 03:41:28;;;;;;;8.88;4.35;;;20.20;98.90;;;;;;5032425;28;20069;-74
2021/07/09 03:44:14;;;;;;;6.32;5.15;;;20.20;98.90;;;;;;5033700;28;20029;-74
2021/07/09 03:47:00;;;;;;;7.93;4.97;;;20.20;98.90;;;;;;5034484;28;20045;-74
2021/07/09 03:49:46;;;;;;;5.53;4.20;;;20.10;98.80;;;;;;5027665;28;20042;-74
2021/07/09 03:52:32;;;;;;;6.25;4.18;;;20.10;99.00;;;;;;5013235;28;20113;-74
2021/07/09 03:55:18;;;;;;;8.70;5.10;;;20.10;99.10;;;;;;5023354;28;20052;-74
2021/07/09 03:58:03;;;;;;;15.02;4.47;;;20.00;99.10;;;;;;5033764;28;20025;-74
2021/07/09 04:00:49;;;;;;;5.40;4.75;;;20.00;99.20;;;;;;5018852;28;20080;-74
2021/07/09 04:03:35;;;;;;;6.32;4.72;;;20.00;99.20;;;;;;5014940;28;20026;-74
2021/07/09 04:06:21;;;;;;;7.22;4.57;;;19.90;99.40;;;;;;5032680;28;20330;-73
2021/07/09 04:09:07;;;;;;;6.10;5.15;;;19.90;99.40;;;;;;5030535;28;20084;-72
2021/07/09 04:11:53;;;;;;;6.70;5.30;;;19.90;99.60;;;;;;5013653;28;20026;-72
2021/07/09 04:14:39;;;;;;;5.95;5.05;;;19.90;99.70;;;;;;5015650;28;20057;-73
2021/07/09 04:17:25;;;;;;;8.70;5.60;;;19.80;99.70;;;;;;5033176;28;20045;-73
2021/07/09 04:20:11;;;;;;;9.48;6.13;;;19.70;99.90;;;;;;5031050;28;20025;-72
2021/07/09 04:22:57;;;;;;;6.50;5.32;;;19.80;99.90;;;;;;5036724;28;20053;-72
2021/07/09 04:25:43;;;;;;;9.40;6.35;;;19.70;99.90;;;;;;5071249;28;20454;-72
2021/07/09 04:28:29;;;;;;;6.60;5.78;;;19.70;99.90;;;;;;5073098;28;20060;-72
2021/07/09 04:31:15;;;;;;;8.50;6.20;;;19.70;99.90;;;;;;5053750;28;20087;-72
2021/07/09 04:34:01;;;;;;;9.13;6.50;;;19.70;99.90;;;;;;5052851;28;20079;-72
2021/07/09 04:36:46;;;;;;;9.30;5.93;;;19.70;99.90;;;;;;5072486;28;20089;-71
2021/07/09 04:39:32;;;;;;;8.95;6.13;;;19.70;99.90;;;;;;5069145;28;20396;-71
2021/07/09 04:42:18;;;;;;;10.15;6.65;;;19.70;99.90;;;;;;5051450;28;20025;-72
2021/07/09 04:45:05;;;;;;;8.35;6.45;;;19.60;99.90;;;;;;5059522;28;20153;-72
2021/07/09 04:47:51;;;;;;;11.80;7.90;;;19.60;99.90;;;;;;5072047;28;20067;-70
2021/07/09 04:50:37;;;;;;;8.38;7.50;;;19.60;99.90;;;;;;5057325;28;20049;-71
2021/07/09 04:53:23;;;;;;;9.00;7.97;;;19.50;99.90;;;;;;5064726;28;20043;-71
2021/07/09 04:56:08;;;;;;;9.00;7.05;;;19.60;99.90;;;;;;5055299;28;20025;-72
2021/07/09 04:58:54;;;;;;;11.75;8.10;;;19.50;99.90;;;;;;5066369;28;20041;-71
2021/07/09 05:01:40;;;;;;;11.45;8.15;;;19.50;99.90;;;;;;5072404;28;20039;-71
2021/07/09 05:04:26;;;;;;;9.50;7.90;;;19.50;99.90;;;;;;5069025;28;20508;-71
2021/07/09 05:07:12;;;;;;;9.88;7.88;;;19.40;99.90;;;;;;5052386;28;20059;-72
2021/07/09 05:09:58;;;;;;;9.88;8.10;;;19.40;99.90;;;;;;5059100;28;20082;-71
2021/07/09 05:12:43;;;;;;;9.57;8.05;;;19.40;99.90;;;;;;5072294;28;20035;-70
2021/07/09 05:15:29;;;;;;;9.70;7.70;;;19.40;99.90;;;;;;5059491;28;20029;-71
2021/07/09 05:18:15;;;;;;;9.43;7.53;;;19.40;99.90;;;;;;5049843;28;20052;-70
2021/07/09 05:21:02;;;;;;;11.75;8.07;;;19.30;99.90;;;;;;5067651;28;20032;-71
2021/07/09 05:23:48;;;;;;;10.95;8.35;;;19.20;99.90;;;;;;5071464;28;20072;-70
2021/07/09 05:26:34;;;;;;;11.45;9.13;;;19.20;99.90;;;;;;5060337;28;20037;-71
2021/07/09 05:29:18;;;;;;;13.90;8.43;;;19.10;99.90;;;;;;5054276;28;20113;-72
2021/07/09 05:32:03;;;;;;;14.07;10.25;;;19.10;99.90;;;;;;5058085;28;20140;-72
2021/07/09 05:34:47;;;;;;;12.32;9.98;;;19.00;99.90;;;;;;5053129;28;20530;-72
2021/07/09 05:37:32;;;;;;;11.07;9.20;;;19.00;99.90;;;;;;5052664;28;20545;-73
2021/07/09 05:40:16;;;;;;;11.90;9.18;;;19.00;99.90;;;;;;5062386;28;20123;-73
2021/07/09 05:43:01;;;;;;;15.55;10.65;;;18.90;99.90;;;;;;5072941;28;20444;-73
2021/07/09 05:45:45;;;;;;;14.90;11.85;;;18.90;99.90;;;;;;5058871;28;20067;-74
2021/07/09 05:48:30;;;;;;;16.67;11.30;;;18.80;99.90;;;;;;5051904;28;20035;-74
2021/07/09 05:51:14;;;;;;;12.40;9.25;;;18.80;99.90;;;;;;5068839;28;20094;-74
2021/07/09 05:53:58;;;;;;;12.13;9.27;;;18.80;99.90;;;;;;5066192;28;20039;-74
2021/07/09 05:56:42;;;;;;;12.43;10.67;;;18.80;99.90;;;;;;5051918;28;20040;-74
2021/07/09 05:59:26;;;;;;;12.40;10.43;;;18.80;99.90;;;;;;5054838;28;20043;-74
2021/07/09 06:02:11;;;;;;;14.25;10.45;;;18.80;99.90;;;;;;5072060;28;20506;-74
2021/07/09 06:04:55;;;;;;;12.65;10.63;;;18.90;99.90;;;;;;5055926;28;20043;-74
2021/07/09 06:07:39;;;;;;;13.82;10.07;;;18.90;99.90;;;;;;5071759;28;20035;-75
2021/07/09 06:10:25;;;;;;;15.23;10.63;;;19.00;99.90;;;;;;5065067;28;20047;-75
2021/07/09 06:13:09;;;;;;;12.95;10.68;;;19.00;99.90;;;;;;5053718;28;20287;-76
2021/07/09 06:15:55;;;;;;;12.20;9.88;;;19.00;99.90;;;;;;5068659;28;20057;-75
2021/07/09 06:18:39;;;;;;;14.85;9.75;;;19.10;99.90;;;;;;5072259;28;20049;-75
2021/07/09 06:21:23;;;;;;;15.27;11.73;;;19.10;99.90;;;;;;5037781;28;20040;-76
2021/07/09 06:24:07;;;;;;;15.57;10.97;;;19.10;99.90;;;;;;5051917;28;20102;-76
2021/07/09 06:26:51;;;;;;;13.20;9.85;;;19.10;99.90;;;;;;5052615;28;20468;-78
2021/07/09 06:29:35;;;;;;;15.20;10.77;;;19.10;99.90;;;;;;5036808;28;20079;-77
2021/07/09 06:32:19;;;;;;;14.60;10.83;;;19.10;99.90;;;;;;5051866;28;20286;-77
2021/07/09 06:35:06;;;;;;;13.85;11.82;;;19.20;99.90;;;;;;5060440;28;20305;-75
2021/07/09 06:37:51;;;;;;;14.57;11.55;;;19.20;99.90;;;;;;5071555;28;20519;-64
2021/07/09 06:40:35;;;;;;;12.30;10.18;;;19.20;99.90;;;;;;5066865;28;20039;-65
2021/07/09 06:43:19;;;;;;;14.65;11.13;;;19.30;99.90;;;;;;5062986;28;20530;-65
2021/07/09 06:46:03;;;;;;;12.80;10.93;;;19.40;99.90;;;;;;5056044;28;20188;-65
2021/07/09 06:48:47;;;;;;;12.85;11.40;;;19.40;99.90;;;;;;5064060;28;20043;-65
2021/07/09 06:51:31;;;;;;;11.85;9.93;;;19.40;99.90;;;;;;5060979;28;20063;-64
2021/07/09 06:54:15;;;;;;;13.90;11.63;;;19.40;99.90;;;;;;5066430;28;20086;-65
2021/07/09 06:56:59;;;;;;;14.38;11.55;;;19.40;99.90;;;;;;5059587;28;20036;-64
2021/07/09 06:59:44;;;;;;;14.55;12.30;;;19.50;99.90;;;;;;5069192;28;20067;-65
2021/07/09 07:02:28;;;;;;;14.48;11.80;;;19.50;99.90;;;;;;5062451;28;20035;-64
2021/07/09 07:05:13;;;;;;;16.08;11.63;;;19.50;99.90;;;;;;5058086;28;20032;-64
2021/07/09 07:08:18;;;;;;;13.88;12.30;;;19.50;99.90;;;;;;5063020;28;20043;-64
2021/07/09 07:11:02;;;;;;;13.73;12.15;;;19.50;99.90;;;;;;5066227;28;20046;-64
2021/07/09 07:13:46;;;;;;;12.23;10.60;;;19.60;99.90;;;;;;5067553;28;20124;-65
2021/07/09 07:16:30;;;;;;;13.77;12.37;;;19.60;99.90;;;;;;5068386;28;20347;-65
2021/07/09 07:19:14;;;;;;;14.27;12.23;;;19.60;99.90;;;;;;5066931;28;20541;-65
2021/07/09 07:22:02;;;;;;;13.88;11.85;;;19.60;99.90;;;;;;5070370;28;20084;-65
2021/07/09 07:24:49;;;;;;;14.77;11.70;;;19.70;99.90;;;;;;5068704;28;20475;-65
2021/07/09 07:27:32;;;;;;;15.82;12.75;;;19.70;99.90;;;;;;5064653;28;20040;-65
2021/07/09 07:30:17;;;;;;;13.47;11.50;;;19.70;99.90;;;;;;5065636;28;20498;-65
2021/07/09 07:33:02;;;;;;;14.50;12.27;;;19.60;99.90;;;;;;5059598;28;20039;-65
2021/07/09 07:35:48;;;;;;;15.00;12.90;;;19.60;99.90;;;;;;5060181;28;20435;-65
2021/07/09 07:38:34;;;;;;;15.02;13.50;;;19.60;99.90;;;;;;5068022;28;20040;-65
2021/07/09 07:41:20;;;;;;;14.98;13.10;;;19.60;99.90;;;;;;5068883;28;20035;-66
2021/07/09 07:44:06;;;;;;;12.63;10.85;;;19.60;99.90;;;;;;5059411;28;20032;-66
2021/07/09 07:46:53;;;;;;;16.23;13.05;;;19.60;99.90;;;;;;5062642;28;20017;-66
2021/07/09 07:49:39;;;;;;;14.20;12.63;;;19.70;99.90;;;;;;5071492;28;20040;-66
2021/07/09 07:52:25;;;;;;;14.10;12.60;;;19.70;99.90;;;;;;5071946;28;20021;-66
2021/07/09 07:55:11;;;;;;;16.02;13.23;;;19.70;99.90;;;;;;5065934;28;20032;-66
2021/07/09 07:57:57;;;;;;;15.35;12.77;;;19.80;99.90;;;;;;5070432;28;20111;-65
2021/07/09 08:00:43;;;;;;;13.77;12.35;;;19.80;99.90;;;;;;5062666;28;20025;-65
2021/07/09 08:03:28;;;;;;;17.65;13.80;;;19.80;99.90;;;;;;5057062;28;20081;-65
2021/07/09 08:06:14;;;;;;;15.82;13.38;;;19.80;99.90;;;;;;5060826;28;20024;-64
2021/07/09 08:09:00;;;;;;;14.88;13.15;;;20.00;99.90;;;;;;5065957;28;20048;-64
2021/07/09 08:11:46;;;;;;;16.02;13.27;;;20.00;99.90;;;;;;5066142;28;20115;-64
2021/07/09 08:14:32;;;;;;;17.42;14.20;;;20.10;99.90;;;;;;5063943;28;20078;-64
2021/07/09 08:17:18;;;;;;;16.25;14.20;;;20.10;99.90;;;;;;5069814;28;20021;-64
2021/07/09 08:20:05;;;;;;;18.25;12.98;;;20.10;99.90;;;;;;5061077;28;21888;-64
2021/07/09 08:22:51;;;;;;;16.02;14.35;;;20.20;99.90;;;;;;5043126;28;20028;-64
2021/07/09 08:25:37;;;;;;;15.57;13.25;;;20.20;99.90;;;;;;5067767;28;20033;-64
2021/07/09 08:28:24;;;;;;;14.50;13.00;;;20.30;99.90;;;;;;5067817;28;20119;-64
2021/07/09 08:31:09;;;;;;;15.40;13.40;;;20.30;99.90;;;;;;5069568;28;20086;-64
2021/07/09 08:33:55;;;;;;;14.95;13.38;;;20.30;99.90;;;;;;5070444;28;20016;-64
2021/07/09 08:36:41;;;;;;;16.52;14.15;;;20.40;99.90;;;;;;5045116;28;20530;-64
2021/07/09 08:39:27;;;;;;;18.00;14.15;;;20.40;99.90;;;;;;5067230;28;20016;-65
2021/07/09 08:42:13;;;;;;;17.20;13.65;;;20.40;99.90;;;;;;5067659;28;20029;-64
2021/07/09 08:44:59;;;;;;;16.30;14.00;;;20.50;99.90;;;;;;5062255;28;20029;-66
2021/07/09 08:47:47;;;;;;;14.85;13.25;;;20.50;99.90;;;;;;5068334;28;20119;-63
2021/07/09 08:50:33;;;;;;;17.63;13.30;;;20.50;99.90;;;;;;5065347;28;20064;-65
2021/07/09 08:53:18;;;;;;;16.17;13.25;;;20.50;99.90;;;;;;5070039;28;20013;-64
2021/07/09 08:56:06;;;;;;;18.27;13.85;;;20.50;99.90;;;;;;5065623;28;20443;-64
2021/07/09 08:58:51;;;;;;;29.45;19.27;;;20.60;99.90;;;;;;5068928;28;20033;-65
2021/07/09 09:01:58;;;;;;;16.23;14.02;;;20.60;99.90;;;;;;5068690;28;20434;-64
2021/07/09 09:04:44;;;;;;;15.57;13.90;;;20.60;99.90;;;;;;5064207;28;20033;-64
2021/07/09 09:07:30;;;;;;;14.65;11.77;;;20.60;99.90;;;;;;5060083;28;20036;-64
2021/07/09 09:10:41;;;;;;;14.88;13.00;;;20.60;99.90;;;;;;5068390;28;20032;-64
2021/07/09 09:13:28;;;;;;;15.30;13.68;;;20.60;99.90;;;;;;5065132;28;20384;-65
2021/07/09 09:16:16;;;;;;;13.77;11.98;;;20.50;99.90;;;;;;5067080;28;20033;-63
2021/07/09 09:19:01;;;;;;;15.82;13.20;;;20.50;99.90;;;;;;5059955;28;20036;-63
2021/07/09 09:22:08;;;;;;;15.65;11.85;;;20.50;99.90;;;;;;5057197;28;20496;-63
2021/07/09 09:24:58;;;;;;;14.32;11.02;;;20.60;99.90;;;;;;5058035;28;20052;-64
2021/07/09 09:28:15;;;;;;;14.65;11.95;;;20.60;99.90;;;;;;5065051;28;20027;-63
2021/07/09 09:30:59;;;;;;;14.32;11.55;;;20.70;99.90;;;;;;5060240;28;20052;-63
2021/07/09 09:33:43;;;;;;;12.95;10.93;;;20.80;99.90;;;;;;5066617;28;20128;-64
2021/07/09 09:36:09;;;;;;;12.77;11.52;;;20.80;99.90;;;;;;5064486;28;20124;-63
2021/07/09 09:38:35;;;;;;;15.68;12.40;;;20.90;99.90;;;;;;5070179;28;20120;-63
2021/07/09 09:41:02;;;;;;;17.63;13.73;;;21.00;99.90;;;;;;5065040;28;20082;-63
2021/07/09 09:43:31;;;;;;;13.52;10.43;;;21.10;99.90;;;;;;5064329;28;20036;-64
2021/07/09 09:46:05;;;;;;;11.32;10.13;;;21.10;99.90;;;;;;5069737;28;20103;-64
2021/07/09 09:48:42;;;;;;;11.88;10.38;;;21.00;99.90;;;;;;5069117;28;20047;-64
2021/07/09 09:51:24;;;;;;;12.43;9.90;;;21.10;99.90;;;;;;5061678;28;20045;-63
2021/07/09 09:53:52;;;;;;;12.93;9.93;;;21.20;99.90;;;;;;5064988;28;20027;-64
2021/07/09 09:56:49;;;;;;;10.93;8.07;;;21.20;99.90;;;;;;5061336;28;20025;-63
2021/07/09 09:59:23;;;;;;;11.45;9.20;;;21.20;99.90;;;;;;5065315;28;20037;-65
2021/07/09 10:02:05;;;;;;;11.10;7.68;;;21.30;99.90;;;;;;5065827;28;20426;-63
2021/07/09 10:04:32;;;;;;;10.35;9.30;;;21.30;99.90;;;;;;5066698;28;20031;-64
2021/07/09 10:07:00;;;;;;;8.23;7.38;;;21.30;99.90;;;;;;5070164;28;20032;-64
2021/07/09 10:09:26;;;;;;;11.38;8.25;;;21.20;99.90;;;;;;5066247;28;20102;-63
2021/07/09 10:11:55;;;;;;;9.98;7.50;;;21.10;99.90;;;;;;5068882;28;20049;-62
2021/07/09 10:14:23;;;;;;;10.50;9.02;;;21.10;99.90;;;;;;5065036;28;20110;-63
2021/07/09 10:16:51;;;;;;;10.45;8.68;;;21.10;99.90;;;;;;5066801;28;20055;-63
2021/07/09 10:19:28;;;;;;;9.45;8.02;;;21.00;99.90;;;;;;5063703;28;20032;-63
2021/07/09 10:21:54;;;;;;;8.82;7.50;;;21.10;99.90;;;;;;5065671;28;20028;-63
2021/07/09 10:24:20;;;;;;;9.73;8.07;;;21.00;99.90;;;;;;5066225;28;20049;-63
2021/07/09 10:26:55;;;;;;;10.10;7.88;;;21.10;99.90;;;;;;5034435;28;20366;-64
2021/07/09 10:29:23;;;;;;;11.65;8.18;;;21.10;99.90;;;;;;5065618;28;20044;-63
2021/07/09 10:31:51;;;;;;;11.57;8.55;;;21.10;99.90;;;;;;5067126;28;20102;-63
2021/07/09 10:34:35;;;;;;;11.68;8.80;;;21.10;99.90;;;;;;5064289;28;20815;-64
2021/07/09 10:37:08;;;;;;;12.67;10.07;;;21.00;99.90;;;;;;5068406;28;20032;-64
2021/07/09 10:39:44;;;;;;;13.10;10.27;;;21.00;99.90;;;;;;5064389;28;20366;-65
2021/07/09 10:42:17;;;;;;;12.13;10.00;;;20.90;99.90;;;;;;5064490;28;20029;-64
2021/07/09 10:44:57;;;;;;;15.50;11.23;;;21.00;99.90;;;;;;5062062;28;20037;-64
2021/07/09 10:47:23;;;;;;;18.55;11.90;;;21.00;99.90;;;;;;5065015;28;20058;-64
2021/07/09 10:49:52;;;;;;;14.27;10.98;;;21.00;99.90;;;;;;5067046;28;20119;-64
2021/07/09 10:52:57;;;;;;;15.90;11.52;;;21.00;99.90;;;;;;5070097;28;20500;-64
2021/07/09 10:55:28;;;;;;;16.00;11.55;;;21.10;99.90;;;;;;5006731;28;20038;-64
2021/07/09 10:58:06;;;;;;;14.82;12.20;;;21.10;99.90;;;;;;5060092;28;20040;-65
2021/07/09 11:00:58;;;;;;;16.05;13.07;;;21.10;99.90;;;;;;5068400;28;20039;-64
2021/07/09 11:03:54;;;;;;;16.27;13.55;;;21.00;99.90;;;;;;5054393;28;20075;-65
2021/07/09 11:06:42;;;;;;;16.67;13.25;;;21.00;99.90;;;;;;5055467;28;20125;-64
2021/07/09 11:09:37;;;;;;;17.77;13.00;;;21.00;99.90;;;;;;5034969;28;20055;-64
2021/07/09 11:12:03;;;;;;;17.42;13.93;;;21.00;99.90;;;;;;5068542;28;20024;-65
2021/07/09 11:14:39;;;;;;;20.67;14.25;;;21.00;99.90;;;;;;5066677;28;20503;-64
2021/07/09 11:17:21;;;;;;;18.98;13.77;;;21.00;99.90;;;;;;5067467;28;20032;-64
2021/07/09 11:19:47;;;;;;;18.05;13.20;;;21.00;99.90;;;;;;5067316;28;20082;-63
2021/07/09 11:22:13;;;;;;;20.05;14.77;;;21.00;99.90;;;;;;5062668;28;20032;-64
2021/07/09 11:24:49;;;;;;;19.10;13.55;;;21.00;99.90;;;;;;5065643;28;20444;-64
2021/07/09 11:27:14;;;;;;;17.20;13.45;;;21.00;99.90;;;;;;5056559;28;20029;-64
2021/07/09 11:29:42;;;;;;;21.70;15.45;;;21.00;99.90;;;;;;5061040;28;20032;-64
2021/07/09 11:32:13;;;;;;;19.90;15.30;;;21.00;99.90;;;;;;5069351;28;20024;-64
2021/07/09 11:34:50;;;;;;;20.35;15.25;;;21.00;99.90;;;;;;5067875;28;20044;-64
2021/07/09 11:37:18;;;;;;;24.58;15.75;;;21.10;99.90;;;;;;5067274;28;20029;-64
2021/07/09 11:39:48;;;;;;;23.63;16.38;;;21.10;99.90;;;;;;5065955;28;20385;-64
2021/07/09 11:42:15;;;;;;;25.17;16.90;;;21.20;99.90;;;;;;5069116;28;20028;-64
2021/07/09 11:45:05;;;;;;;21.40;16.15;;;21.20;99.90;;;;;;5064573;28;20086;-64
2021/07/09 11:47:32;;;;;;;24.63;15.25;;;21.30;99.90;;;;;;5065006;28;20029;-64
2021/07/09 11:50:05;;;;;;;25.80;18.42;;;21.40;99.90;;;;;;5060299;28;20047;-65
2021/07/09 11:52:36;;;;;;;25.15;18.48;;;21.50;99.90;;;;;;5069253;28;20024;-64
2021/07/09 11:55:05;;;;;;;24.67;18.25;;;21.50;99.90;;;;;;5062810;28;20032;-63
2021/07/09 11:57:33;;;;;;;22.08;16.35;;;21.50;99.90;;;;;;5061964;28;20032;-64
2021/07/09 12:00:00;;;;;;;24.95;18.17;;;21.60;99.90;;;;;;5066337;28;20032;-64
2021/07/09 12:02:28;;;;;;;24.60;18.48;;;21.60;99.90;;;;;;5070578;28;20051;-64
2021/07/09 12:04:55;;;;;;;29.00;18.52;;;21.60;99.90;;;;;;5065271;28;20055;-64
2021/07/09 12:07:31;;;;;;;27.73;18.23;;;21.70;99.90;;;;;;5061288;28;20116;-65
2021/07/09 12:10:00;;;;;;;26.05;17.73;;;21.80;99.90;;;;;;5058883;28;20037;-64
2021/07/09 12:12:32;;;;;;;25.00;17.15;;;21.80;99.90;;;;;;5072468;28;20024;-65
2021/07/09 12:14:59;;;;;;;26.60;17.63;;;21.80;99.90;;;;;;5066210;28;20028;-65
2021/07/09 12:17:27;;;;;;;24.88;17.30;;;21.90;99.90;;;;;;5071952;28;20025;-65
2021/07/09 12:20:11;;;;;;;35.85;17.63;;;21.90;99.90;;;;;;5047960;28;20445;-65
2021/07/09 12:22:38;;;;;;;28.83;19.17;;;21.90;99.90;;;;;;5071607;28;20028;-64
2021/07/09 12:25:09;;;;;;;29.48;19.00;;;22.00;99.90;;;;;;5068565;28;20052;-64
2021/07/09 12:27:36;;;;;;;25.75;19.02;;;22.00;99.90;;;;;;5069036;28;20111;-64
2021/07/09 12:30:08;;;;;;;30.52;18.90;;;22.00;99.90;;;;;;5061682;28;20029;-64
2021/07/09 12:32:42;;;;;;;29.55;19.30;;;22.10;99.90;;;;;;5071860;28;20041;-64
2021/07/09 12:35:09;;;;;;;26.77;18.25;;;22.20;99.90;;;;;;5062932;28;20112;-66
2021/07/09 12:37:36;;;;;;;25.83;17.88;;;22.30;99.90;;;;;;5071369;28;20032;-65
2021/07/09 12:40:18;;;;;;;27.17;18.48;;;22.50;99.90;;;;;;5064446;28;20028;-65
2021/07/09 12:42:44;;;;;;;26.83;18.75;;;22.60;99.90;;;;;;5053647;28;20428;-64
2021/07/09 12:45:11;;;;;;;24.85;18.50;;;22.60;99.90;;;;;;5063189;28;20480;-64
2021/07/09 12:47:52;;;;;;;24.17;16.48;;;22.60;99.90;;;;;;5066026;28;20033;-64
2021/07/09 12:50:25;;;;;;;28.15;17.42;;;22.60;99.90;;;;;;5055707;28;20041;-65
2021/07/09 12:52:51;;;;;;;26.80;19.50;;;22.70;99.90;;;;;;5063769;28;20078;-64
2021/07/09 12:55:36;;;;;;;23.50;16.92;;;22.80;99.90;;;;;;5060556;28;20448;-64
2021/07/09 12:58:12;;;;;;;22.77;16.77;;;22.90;99.90;;;;;;5066344;28;20051;-63
2021/07/09 13:00:39;;;;;;;23.85;17.30;;;23.00;99.90;;;;;;5065193;28;20392;-64
2021/07/09 13:03:04;;;;;;;25.58;18.00;;;23.10;99.90;;;;;;5070103;28;20028;-64
2021/07/09 13:05:33;;;;;;;22.35;16.55;;;23.20;99.90;;;;;;5070240;28;20032;-64
2021/07/09 13:08:12;;;;;;;21.90;16.33;;;23.30;99.80;;;;;;5063836;28;20024;-65
2021/07/09 13:10:39;;;;;;;19.77;15.27;;;23.40;99.90;;;;;;5069049;28;20466;-64
2021/07/09 13:13:19;;;;;;;19.52;16.10;;;23.60;99.40;;;;;;5070034;28;20557;-64
2021/07/09 13:16:03;;;;;;;22.20;15.57;;;23.60;99.30;;;;;;5065356;28;20028;-65
2021/07/09 13:18:29;;;;;;;;;;;23.80;98.80;;;;;;5056440;28;20576;-64
2021/07/09 13:21:00;;;;;;;21.92;15.63;;;23.90;98.20;;;;;;5058067;28;20051;-64
2021/07/09 13:23:26;;;;;;;22.13;14.32;;;24.00;99.00;;;;;;5060997;28;20052;-64
2021/07/09 13:26:05;;;;;;;18.92;14.38;;;24.10;98.50;;;;;;5058843;28;20434;-64
2021/07/09 13:28:44;;;;;;;17.60;13.65;;;24.20;98.30;;;;;;5067710;28;20078;-65
2021/07/09 13:31:10;;;;;;;17.48;14.75;;;24.30;98.00;;;;;;5067819;28;20104;-65
2021/07/09 13:33:37;;;;;;;20.88;15.25;;;24.30;98.10;;;;;;5065138;28;20415;-64
2021/07/09 13:36:03;;;;;;;21.77;15.30;;;24.30;97.30;;;;;;5064932;28;20060;-64
2021/07/09 13:38:29;;;;;;;18.75;14.73;;;24.30;97.90;;;;;;5060522;28;20107;-64
2021/07/09 13:40:55;;;;;;;17.35;13.60;;;24.40;97.90;;;;;;5052013;28;20111;-64
2021/07/09 13:43:21;;;;;;;18.73;13.93;;;24.40;97.60;;;;;;5063946;28;20107;-64
2021/07/09 13:45:47;;;;;;;19.42;14.30;;;24.60;97.50;;;;;;5064465;28;20075;-65
2021/07/09 13:48:13;;;;;;;16.63;12.50;;;24.70;96.90;;;;;;5044025;28;20518;-64